• Join FlightAware (Why Join?)
  • Login
  • US Flag 
11:51PM EDT


 

Airport Tracker/Info


-or-


 

Live Flight TrackerFlight Track Log ✈ N754DJ ✈ 22-Jul-2013 ✈ KEYE - KJYR

Flight Track Log - Related Links

Times and Time Zones

All times are in EDT time to prevent confusion due to time zone crossing. See the N754DJ flight status page for this flight to view local times or setup timezone preferences in your user account.

Time Position Orientation Groundspeed Altitude Reporting Facility
EDT Latitude Longitude Course Direction KTS MPH feet Rate Location/Type
09:39AM 39.8500 -86.2833 322° Northwest 126 145 1,200  Level Indianapolis TRACON
09:40AM 39.8667 -86.3000 322° Northwest 136 157 1,900 780 Climbing Indianapolis TRACON
09:41AM 39.8758 -86.3056 335° Northwest 120 138 2,200 600 Climbing Indianapolis Center
09:42AM 39.9078 -86.3283 331° Northwest 123 142 2,900 660 Climbing Indianapolis Center
09:44AM 39.9636 -86.3997 316° Northwest 137 158 4,400 720 Climbing Indianapolis Center
09:45AM 39.9928 -86.4344 318° Northwest 140 161 5,200 840 Climbing Indianapolis Center
09:46AM 40.0367 -86.4567 339° North 141 162 6,200 900 Climbing Indianapolis Center
09:47AM 40.0714 -86.4753 338° Northwest 138 159 7,100 780 Climbing Indianapolis Center
09:48AM 40.1081 -86.4936 339° North 140 161 7,900 720 Climbing Indianapolis Center
09:49AM 40.1447 -86.5128 338° Northwest 141 162 8,700 780 Climbing Indianapolis Center
09:50AM 40.1717 -86.5489 314° West 140 161 9,500 780 Climbing Indianapolis Center
09:51AM 40.1994 -86.5861 314° West 142 163 10,400 960 Climbing Indianapolis Center
09:52AM 40.2331 -86.6311 314° West 144 166 11,500 720 Climbing Indianapolis Center
09:53AM 40.2619 -86.6697 314° West 146 168 12,000 180 Climbing Indianapolis Center
09:54AM 40.2967 -86.7175 314° West 175 201 12,000  Level Chicago Center
09:55AM 40.3308 -86.7639 314° West 178 205 12,000  Level Chicago Center
09:56AM 40.3617 -86.8269 303° West 178 205 12,000  Level Chicago Center
09:57AM 40.3653 -86.8900 274° West 177 204 12,000  Level Chicago Center
09:58AM 40.3697 -86.9519 275° West 173 199 12,000  Level Chicago Center
09:59AM 40.3750 -87.0150 276° West 174 200 12,000  Level Chicago Center
10:00AM 40.3811 -87.0781 277° West 175 201 12,000  Level Chicago Center
10:01AM 40.3886 -87.1417 279° West 177 204 12,000  Level Chicago Center
10:02AM 40.3964 -87.2192 278° West 181 208 12,000  Level Chicago Center
10:03AM 40.4017 -87.2844 276° West 182 209 12,000  Level Chicago Center
10:04AM 40.4072 -87.3492 276° West 180 207 12,000  Level Chicago Center
10:05AM 40.4125 -87.4133 276° West 179 206 12,000  Level Chicago Center
10:07AM 40.4200 -87.4806 278° West 179 206 12,000  Level Chicago Center
10:08AM 40.4258 -87.5450 277° West 178 205 12,000  Level Chicago Center
10:09AM 40.4331 -87.6233 277° West 180 207 12,000  Level Chicago Center
10:10AM 40.4394 -87.6886 277° West 180 207 12,000  Level Chicago Center
10:11AM 40.4456 -87.7528 277° West 179 206 12,000  Level Chicago Center
10:12AM 40.4506 -87.8183 276° West 180 207 12,000  Level Chicago Center
10:13AM 40.4564 -87.8831 277° West 180 207 12,000  Level Chicago Center
10:14AM 40.4633 -87.9614 277° West 180 207 12,000  Level Chicago Center
10:15AM 40.4692 -88.0264 277° West 180 207 12,000  Level Chicago Center
10:16AM 40.4753 -88.0936 277° West 186 214 12,000  Level Chicago Center
10:17AM 40.4806 -88.1589 276° West 181 208 12,000  Level Chicago Center
10:18AM 40.4853 -88.2242 275° West 180 207 12,000  Level Chicago Center
10:19AM 40.4928 -88.3025 277° West 181 208 12,000  Level Chicago Center
10:20AM 40.4981 -88.3669 276° West 178 205 12,000  Level Chicago Center
10:21AM 40.5031 -88.4317 276° West 179 206 12,000  Level Chicago Center
10:22AM 40.5078 -88.4950 276° West 177 204 12,000  Level Chicago Center
10:23AM 40.5144 -88.5600 278° West 179 206 12,000  Level Chicago Center
10:24AM 40.5194 -88.6250 276° West 180 207 12,000  Level Chicago Center
10:25AM 40.5261 -88.7003 277° West 177 204 12,000  Level Chicago Center
10:26AM 40.5317 -88.7653 276° West 176 203 12,000  Level Chicago Center
10:27AM 40.5358 -88.8283 275° West 175 201 12,000  Level Chicago Center
10:28AM 40.5406 -88.8889 276° West 174 200 12,000  Level Chicago Center
10:29AM 40.5453 -88.9528 276° West 175 201 12,000  Level Chicago Center
10:30AM 40.5511 -89.0289 276° West 174 200 12,000  Level Chicago Center
10:31AM 40.5567 -89.0928 277° West 176 203 12,000  Level Chicago Center
10:32AM 40.5603 -89.1569 274° West 176 203 12,000  Level Chicago Center
10:33AM 40.5656 -89.2217 276° West 177 204 12,000  Level Chicago Center
10:34AM 40.5706 -89.2861 276° West 177 204 12,000  Level Chicago Center
10:35AM 40.5756 -89.3506 276° West 177 204 12,000  Level Chicago Center
10:37AM 40.5811 -89.4275 275° West 176 203 12,000  Level Chicago Center
10:38AM 40.5864 -89.4928 276° West 178 205 12,000  Level Chicago Center
10:39AM 40.5908 -89.5575 275° West 176 203 12,000  Level Chicago Center
10:40AM 40.5953 -89.6219 275° West 175 201 12,000  Level Chicago Center
10:41AM 40.5997 -89.6864 275° West 174 200 12,000  Level Chicago Center
10:42AM 40.6042 -89.7514 275° West 176 203 12,000  Level Chicago Center
10:44AM 40.6133 -89.8828 275° West 177 204 12,000  Level Kansas City Center
10:45AM 40.6183 -89.9475 276° West 177 204 12,000  Level Kansas City Center
10:46AM 40.6231 -90.0125 275° West 177 204 12,000  Level Kansas City Center
10:47AM 40.6286 -90.0883 276° West 174 200 12,000  Level Chicago Center
10:48AM 40.6331 -90.1522 275° West 174 200 12,000  Level Chicago Center
10:49AM 40.6372 -90.2172 275° West 178 205 12,000  Level Chicago Center
10:50AM 40.6411 -90.2819 275° West 178 205 12,100  Climbing Chicago Center
10:51AM 40.6461 -90.3586 275° West 176 203 12,100  Level Chicago Center
10:52AM 40.6503 -90.4222 275° West 175 201 12,100  Level Chicago Center
10:53AM 40.6536 -90.4847 274° West 172 198 12,100  Level Chicago Center
10:54AM 40.6575 -90.5469 275° West 171 197 12,100  Level Chicago Center
10:55AM 40.6631 -90.6083 277° West 169 194 12,100  Level Chicago Center
10:56AM 40.6667 -90.6694 274° West 168 193 12,100  Level Chicago Center
10:57AM 40.6706 -90.7319 275° West 170 196 12,100  Level Chicago Center
10:58AM 40.6750 -90.8061 275° West 170 196 12,100  Level Chicago Center
10:59AM 40.6786 -90.8669 274° West 166 191 12,100  Level Chicago Center
11:00AM 40.6825 -90.9283 275° West 169 194 12,100  Level Chicago Center
11:01AM 40.6864 -90.9889 275° West 166 191 12,100  Level Chicago Center
11:02AM 40.6897 -91.0506 274° West 167 192 12,100  Level Chicago Center
11:03AM 40.6931 -91.1125 274° West 169 194 12,100  Level Chicago Center
11:04AM 40.6989 -91.1858 276° West 168 193 12,100  Level Chicago Center
11:05AM 40.7006 -91.2361 273° West 171 197 12,100  Level Chicago Center
11:06AM 40.7039 -91.2981 274° West 170 196 12,100  Level Chicago Center
11:07AM 40.7083 -91.3689 275° West 173 199 12,100  Level Chicago Center
11:08AM 40.7122 -91.4317 275° West 174 200 12,100  Level Chicago Center
11:09AM 40.7158 -91.4933 274° West 172 198 12,100  Level Chicago Center
11:10AM 40.7189 -91.5558 274° West 172 198 12,100  Level Chicago Center
11:11AM 40.7222 -91.6175 274° West 170 196 12,100 -60 Level Chicago Center
11:13AM 40.7269 -91.6914 275° West 170 196 12,000 -60 Descending Chicago Center
11:14AM 40.7306 -91.7531 274° West 169 194 12,000  Level Chicago Center
11:15AM 40.7336 -91.8147 274° West 170 196 12,000  Level Chicago Center
11:16AM 40.7369 -91.8758 274° West 169 194 12,000  Level Chicago Center
11:17AM 40.7394 -91.9375 273° West 169 194 12,000  Level Chicago Center
11:18AM 40.7439 -92.0106 275° West 169 194 12,000  Level Chicago Center
11:19AM 40.7469 -92.0719 274° West 170 196 12,000  Level Chicago Center
11:20AM 40.7497 -92.1336 273° West 171 197 12,000  Level Chicago Center
11:21AM 40.7528 -92.1950 274° West 170 196 12,000  Level Chicago Center
11:22AM 40.7561 -92.2572 274° West 171 197 12,000  Level Chicago Center
11:23AM 40.7594 -92.3317 273° West 171 197 12,000  Level Chicago Center
11:24AM 40.7622 -92.3942 273° West 173 199 12,000  Level Chicago Center
11:25AM 40.7656 -92.4564 274° West 173 199 12,000  Level Chicago Center
11:26AM 40.7686 -92.5189 274° West 172 198 12,000  Level Chicago Center
11:27AM 40.7719 -92.5808 274° West 171 197 12,000  Level Chicago Center
11:28AM 40.7750 -92.6567 273° West 173 199 12,000  Level Chicago Center
11:29AM 40.7786 -92.7189 274° West 173 199 12,000  Level Chicago Center
11:30AM 40.7808 -92.7819 273° West 174 200 12,000  Level Chicago Center
11:31AM 40.7833 -92.8444 273° West 173 199 12,000  Level Chicago Center
11:32AM 40.7869 -92.9228 274° West 179 206 12,000  Level Chicago Center
11:33AM 40.7889 -92.9867 272° West 178 205 12,000  Level Chicago Center
11:34AM 40.7925 -93.0483 274° West 173 199 12,000  Level Chicago Center
11:35AM 40.7956 -93.1153 273° West 183 211 12,000  Level Chicago Center
11:36AM 40.7978 -93.1783 273° West 178 205 12,000  Level Chicago Center
11:37AM 40.8014 -93.2561 274° West 178 205 12,000  Level Chicago Center
11:38AM 40.8039 -93.3225 273° West 180 207 12,000  Level Chicago Center
11:39AM 40.8056 -93.3761 272° West 182 209 12,000  Level Minneapolis Center
11:40AM 40.8089 -93.4433 274° West 183 211 12,000  Level Minneapolis Center
11:41AM 40.8111 -93.5083 273° West 181 208 12,000  Level Minneapolis Center
11:42AM 40.8139 -93.5747 273° West 181 208 12,000  Level Minneapolis Center
11:43AM 40.8161 -93.6572 272° West 186 214 12,000  Level Minneapolis Center
11:44AM 40.8189 -93.7250 273° West 187 215 12,000  Level Minneapolis Center
11:45AM 40.8214 -93.7947 273° West 189 217 12,000  Level Minneapolis Center
11:46AM 40.8247 -93.8622 274° West 188 216 12,000  Level Minneapolis Center
11:47AM 40.8275 -93.9328 273° West 192 221 12,000  Level Minneapolis Center
11:48AM 40.8292 -94.0158 272° West 191 220 12,000  Level Minneapolis Center
11:49AM 40.8319 -94.0847 273° West 191 220 12,000  Level Minneapolis Center
11:51AM 40.8347 -94.1525 273° West 189 217 12,000  Level Minneapolis Center
11:52AM 40.8375 -94.2236 273° West 193 222 12,000  Level Minneapolis Center
11:53AM 40.8375 -94.2939 270° West 194 223 12,000  Level Minneapolis Center
11:54AM 40.8419 -94.3772 274° West 193 222 12,000  Level Minneapolis Center
11:55AM 40.8431 -94.4475 271° West 193 222 12,000  Level Minneapolis Center
11:56AM 40.8447 -94.5169 272° West 193 222 12,000  Level Minneapolis Center
11:57AM 40.8472 -94.5953 272° West 193 222 12,000  Level Minneapolis Center
11:58AM 40.8506 -94.6642 274° West 190 219 12,000  Level Minneapolis Center
11:59AM 40.8508 -94.7350 270° West 192 221 12,000  Level Minneapolis Center
12:00PM 40.8522 -94.8058 272° West 192 221 12,000  Level Minneapolis Center
12:01PM 40.8558 -94.8744 274° West 189 217 12,000  Level Minneapolis Center
12:02PM 40.8569 -94.9572 271° West 188 216 12,000  Level Minneapolis Center
12:03PM 40.8600 -95.0239 273° West 184 212 12,000  Level Minneapolis Center
12:04PM 40.8725 -95.0856 285° West 184 212 12,000  Level Minneapolis Center
12:05PM 40.8731 -95.1517 271° West 185 213 12,000  Level Minneapolis Center
12:06PM 40.8739 -95.2206 271° West 184 212 12,100  Climbing Minneapolis Center
12:07PM 40.8744 -95.2867 271° West 182 209 12,000 -60 Descending Minneapolis Center
12:08PM 40.8769 -95.3500 273° West 185 213 12,000  Level Minneapolis Center
12:09PM 40.8700 -95.4419 264° West 184 212 12,000  Level Minneapolis Center
12:10PM 40.8761 -95.4881 280° West 183 211 12,000  Level Minneapolis Center
12:11PM 40.8769 -95.5594 271° West 182 209 12,000  Level Minneapolis Center
12:12PM 40.8767 -95.6147 270° West 178 205 12,000  Level Minneapolis Center
12:13PM 40.8772 -95.6864 271° West 179 206 12,000  Level Minneapolis Center
12:14PM 40.8775 -95.7525 270° West 181 208 12,000  Level Minneapolis Center
12:15PM 40.8778 -95.8186 270° West 179 206 12,000  Level Minneapolis Center
12:16PM 40.8781 -95.8819 270° West 178 205 12,000  Level Minneapolis Center
12:16PM 40.8783 -95.9167 271° West 177 204 12,000  Level Minneapolis Center
12:17PM 40.8781 -95.9483 269° West 176 203 12,000  Level Minneapolis Center
12:17PM 40.8794 -95.9811 273° West 176 203 12,000  Level Minneapolis Center
12:18PM 40.8783 -96.0144 267° West 171 197 12,000  Level Minneapolis Center
12:18PM 40.8803 -96.0436 275° West 173 199 12,000  Level Minneapolis Center
12:19PM 40.8822 -96.1064 272° West 171 197 12,000  Level Minneapolis Center
12:21PM 40.8822 -96.1700 270° West 172 198 12,000  Level Minneapolis Center
12:22PM 40.8836 -96.2450 271° West 171 197 12,000  Level Minneapolis Center
12:23PM 40.8844 -96.3089 271° West 172 198 12,000 -300 Level Minneapolis Center
12:24PM 40.8861 -96.3758 272° West 179 206 11,500 -540 Descending Minneapolis Center
12:25PM 40.8797 -96.4661 265° West 193 222 10,800 -480 Descending Minneapolis Center
12:26PM 40.8883 -96.5189 282° West 194 223 10,500 -480 Descending Minneapolis Center
12:27PM 40.8886 -96.5883 270° West 191 220 10,000 -540 Descending Minneapolis Center
12:28PM 40.8900 -96.6611 271° West 195 224 9,500 -600 Descending Minneapolis Center
12:29PM 40.8783 -96.7528 260° West 198 228 8,800 -600 Descending Minneapolis Center
12:30PM 40.8783 -96.8272 270° West 196 226 8,300 -540 Descending Minneapolis Center
12:31PM 40.8925 -96.8942 286° West 198 228 7,800 -480 Descending Minneapolis Center
12:32PM 40.8919 -96.9658 269° West 196 226 7,400 -480 Descending Minneapolis Center
12:33PM 40.8933 -97.0367 272° West 194 223 6,900 -540 Descending Minneapolis Center
12:34PM 40.8947 -97.1086 271° West 195 224 6,400 -540 Descending Minneapolis Center
12:35PM 40.8936 -97.1928 269° West 193 222 5,800 -600 Descending Minneapolis Center